Time;durP1;ratioP1;P1;durP2;ratioP2;P2;SDS_P1;SDS_P2;PMS_P1;PMS_P2;Temp;Humidity;BMP_temperature;BMP_pressure;BME280_temperature;BME280_humidity;BME280_pressure;Samples;Min_cycle;Max_cycle;Signal;HPM_P1;HPM_P2
2023/03/15 00:00:44;;;;;;;0.30;0.30;;;3.90;99.90;;;;;;5039688;28;20858;-87
2023/03/15 00:03:10;;;;;;;0.93;0.93;;;3.90;99.90;;;;;;5057283;28;20346;-86
2023/03/15 00:05:40;;;;;;;0.20;0.20;;;3.90;99.90;;;;;;5058695;28;20292;-85
2023/03/15 00:08:06;;;;;;;0.37;0.37;;;3.90;99.90;;;;;;5058098;28;20213;-85
2023/03/15 00:10:31;;;;;;;0.27;0.27;;;4.00;99.90;;;;;;5055823;28;20225;-85
2023/03/15 00:12:57;;;;;;;0.30;0.30;;;3.90;99.90;;;;;;5056416;28;21122;-85
2023/03/15 00:15:23;;;;;;;0.30;0.30;;;4.00;99.90;;;;;;5055368;28;20221;-85
2023/03/15 00:17:49;;;;;;;0.27;0.27;;;4.10;99.90;;;;;;5057429;28;20247;-86
2023/03/15 00:20:15;;;;;;;0.20;0.20;;;4.20;99.90;;;;;;5059126;28;20231;-84
2023/03/15 00:22:41;;;;;;;0.30;0.30;;;4.10;99.90;;;;;;5058091;28;20270;-85
2023/03/15 00:25:08;;;;;;;0.50;0.50;;;4.20;99.90;;;;;;5052675;28;20417;-84
2023/03/15 00:27:33;;;;;;;0.30;0.30;;;4.10;99.90;;;;;;5054471;28;20221;-84
2023/03/15 00:29:59;;;;;;;0.30;0.30;;;4.00;99.90;;;;;;5057405;28;20769;-86
2023/03/15 00:32:25;;;;;;;0.30;0.30;;;4.00;99.90;;;;;;5042178;28;20371;-84
2023/03/15 00:34:53;;;;;;;2.43;1.23;;;4.00;99.90;;;;;;5057237;28;20229;-84
2023/03/15 00:37:20;;;;;;;0.30;0.30;;;3.90;99.90;;;;;;5055860;28;20320;-85
2023/03/15 00:39:47;;;;;;;0.30;0.30;;;3.90;99.90;;;;;;5054694;28;20241;-85
2023/03/15 00:42:16;;;;;;;0.40;0.40;;;4.00;99.90;;;;;;5054523;28;20221;-85
2023/03/15 00:44:42;;;;;;;0.30;0.30;;;4.10;99.90;;;;;;5056823;28;20189;-85
2023/03/15 00:47:09;;;;;;;0.67;0.67;;;4.20;99.90;;;;;;5056854;28;20250;-84
2023/03/15 00:49:35;;;;;;;0.40;0.40;;;4.20;99.90;;;;;;5037681;28;20217;-85
2023/03/15 00:52:01;;;;;;;0.40;0.40;;;4.20;99.90;;;;;;5047910;28;20712;-84
2023/03/15 00:54:27;;;;;;;0.40;0.40;;;4.00;99.90;;;;;;5057405;28;20229;-84
2023/03/15 00:56:52;;;;;;;0.90;0.43;;;3.70;99.90;;;;;;5053000;28;20242;-84
2023/03/15 00:59:18;;;;;;;0.40;0.40;;;3.50;99.90;;;;;;5042259;28;20221;-85
2023/03/15 01:01:44;;;;;;;0.30;0.30;;;3.40;99.90;;;;;;5037112;28;20212;-85
2023/03/15 01:04:13;;;;;;;0.73;0.40;;;3.10;99.90;;;;;;5055037;28;20256;-85
2023/03/15 01:06:41;;;;;;;0.30;0.30;;;3.20;99.90;;;;;;5030362;28;20217;-85
2023/03/15 01:09:08;;;;;;;0.30;0.30;;;3.30;99.90;;;;;;5055762;28;20245;-85
2023/03/15 01:11:34;;;;;;;0.30;0.30;;;3.20;99.90;;;;;;5057578;28;20181;-85
2023/03/15 01:14:02;;;;;;;0.30;0.30;;;3.00;99.90;;;;;;5039627;28;20229;-85
2023/03/15 01:16:28;;;;;;;0.40;0.40;;;2.90;99.90;;;;;;5039030;28;20308;-85
2023/03/15 01:18:55;;;;;;;0.30;0.30;;;2.80;99.90;;;;;;5039835;28;20283;-87
2023/03/15 01:21:22;;;;;;;0.67;0.50;;;2.70;99.90;;;;;;5056443;28;20287;-86
2023/03/15 01:23:49;;;;;;;0.43;0.43;;;2.70;99.90;;;;;;5056238;28;20266;-87
2023/03/15 01:26:19;;;;;;;0.30;0.30;;;2.60;99.90;;;;;;5055835;28;20198;-86
2023/03/15 01:28:45;;;;;;;3.40;0.40;;;2.50;99.90;;;;;;5054158;28;20256;-87
2023/03/15 01:31:24;;;;;;;0.30;0.30;;;2.60;99.90;;;;;;5053906;28;20215;-86
2023/03/15 01:33:50;;;;;;;0.27;0.27;;;2.60;99.90;;;;;;5057163;28;20221;-86
2023/03/15 01:36:16;;;;;;;0.30;0.30;;;2.60;99.90;;;;;;5035943;28;20206;-85
2023/03/15 01:38:42;;;;;;;1.23;1.13;;;2.70;99.90;;;;;;5054481;28;20201;-84
2023/03/15 01:41:12;;;;;;;0.30;0.30;;;2.60;99.90;;;;;;5055086;28;20189;-86
2023/03/15 01:43:45;;;;;;;0.40;0.40;;;2.60;99.90;;;;;;5057296;28;20209;-85
2023/03/15 01:46:28;;;;;;;0.37;0.37;;;2.60;99.90;;;;;;5057828;28;20224;-84
2023/03/15 01:49:16;;;;;;;0.40;0.40;;;2.60;99.90;;;;;;5059833;28;20217;-85
2023/03/15 01:51:46;;;;;;;0.40;0.40;;;2.60;99.90;;;;;;5055443;28;20851;-85
2023/03/15 01:54:30;;;;;;;0.40;0.40;;;2.60;99.90;;;;;;5057315;28;20225;-85
2023/03/15 01:57:03;;;;;;;0.63;0.63;;;2.60;99.90;;;;;;5055094;28;20185;-85
2023/03/15 01:59:33;;;;;;;0.40;0.40;;;2.60;99.90;;;;;;5057875;28;20209;-85
2023/03/15 02:01:59;;;;;;;0.40;0.40;;;2.50;99.90;;;;;;5080721;28;20232;-85
2023/03/15 02:04:41;;;;;;;0.30;0.30;;;2.50;99.90;;;;;;5037793;28;20263;-86
2023/03/15 02:07:08;;;;;;;0.30;0.30;;;2.40;99.90;;;;;;5055082;28;20584;-84
2023/03/15 02:10:00;;;;;;;0.50;0.50;;;2.40;99.90;;;;;;5054618;28;20544;-85
2023/03/15 02:12:29;;;;;;;0.30;0.30;;;2.40;99.90;;;;;;5043592;28;20267;-84
2023/03/15 02:14:55;;;;;;;0.30;0.30;;;2.40;99.90;;;;;;5052925;28;20194;-84
2023/03/15 02:17:27;;;;;;;0.30;0.30;;;2.40;99.90;;;;;;5057520;28;20196;-85
2023/03/15 02:20:26;;;;;;;0.20;0.20;;;2.40;99.90;;;;;;5057514;28;20217;-84
2023/03/15 02:22:55;;;;;;;0.30;0.30;;;2.40;99.90;;;;;;5053823;28;20228;-86
2023/03/15 02:25:33;;;;;;;14.43;0.80;;;2.30;99.90;;;;;;5061342;28;20212;-85
2023/03/15 02:28:00;;;;;;;0.30;0.30;;;2.30;99.90;;;;;;5059809;28;20324;-86
2023/03/15 02:30:26;;;;;;;0.30;0.30;;;2.30;99.90;;;;;;5043681;28;20275;-87
2023/03/15 02:32:52;;;;;;;0.30;0.30;;;2.30;99.90;;;;;;5052776;28;20611;-85
2023/03/15 02:35:30;;;;;;;0.53;0.53;;;2.40;99.90;;;;;;5036196;28;20287;-86
2023/03/15 02:38:01;;;;;;;0.30;0.30;;;2.50;99.90;;;;;;5051798;28;20306;-87
2023/03/15 02:40:29;;;;;;;0.27;0.27;;;2.60;99.90;;;;;;5052795;28;20224;-86
2023/03/15 02:43:04;;;;;;;0.40;0.40;;;2.70;99.90;;;;;;5054352;28;20311;-86
2023/03/15 02:45:32;;;;;;;0.30;0.30;;;2.90;99.90;;;;;;5056605;28;20358;-86
2023/03/15 02:48:01;;;;;;;0.30;0.30;;;3.00;99.90;;;;;;5054149;28;20228;-85
2023/03/15 02:50:27;;;;;;;0.33;0.33;;;3.10;99.90;;;;;;5056150;28;20173;-86
2023/03/15 02:52:52;;;;;;;0.73;0.50;;;3.10;99.90;;;;;;5056261;28;20229;-86
2023/03/15 02:55:18;;;;;;;0.30;0.30;;;3.10;99.90;;;;;;5053315;28;20593;-86
2023/03/15 02:57:44;;;;;;;0.30;0.30;;;3.20;99.90;;;;;;5053627;28;20218;-86
2023/03/15 03:00:14;;;;;;;0.67;0.60;;;3.10;99.90;;;;;;5053787;28;20217;-85
2023/03/15 03:02:45;;;;;;;0.83;0.83;;;3.00;99.90;;;;;;5056145;28;20197;-86
2023/03/15 03:05:13;;;;;;;0.37;0.37;;;2.80;99.90;;;;;;5056430;28;20181;-86
2023/03/15 03:07:38;;;;;;;0.30;0.30;;;2.70;99.90;;;;;;5055936;28;20218;-85
2023/03/15 03:10:05;;;;;;;0.40;0.40;;;2.50;99.90;;;;;;5045580;28;20210;-86
2023/03/15 03:12:32;;;;;;;0.67;0.40;;;2.40;99.90;;;;;;5062966;28;20352;-86
2023/03/15 03:14:58;;;;;;;0.53;0.50;;;2.40;99.90;;;;;;5054646;28;20555;-85
2023/03/15 03:17:23;;;;;;;1.27;0.50;;;2.30;99.90;;;;;;5054100;28;20220;-85
2023/03/15 03:19:50;;;;;;;1.03;1.03;;;2.20;99.90;;;;;;5053889;28;20221;-86
2023/03/15 03:22:16;;;;;;;0.30;0.30;;;2.20;99.90;;;;;;5057263;28;20616;-86
2023/03/15 03:24:44;;;;;;;0.30;0.30;;;2.20;99.90;;;;;;5054865;28;20258;-85
2023/03/15 03:27:13;;;;;;;0.40;0.40;;;2.20;99.90;;;;;;5052328;28;20219;-86
2023/03/15 03:29:40;;;;;;;1.63;1.53;;;2.20;99.90;;;;;;5052816;28;20294;-85
2023/03/15 03:32:06;;;;;;;0.83;0.83;;;2.10;99.90;;;;;;5054451;28;20186;-85
2023/03/15 03:34:32;;;;;;;0.40;0.40;;;2.10;99.90;;;;;;5061348;28;20237;-85
2023/03/15 03:36:58;;;;;;;0.30;0.30;;;2.20;99.90;;;;;;5055598;28;20320;-85
2023/03/15 03:39:23;;;;;;;0.30;0.30;;;2.20;99.90;;;;;;5054763;28;20257;-85
2023/03/15 03:41:49;;;;;;;0.30;0.30;;;2.10;99.90;;;;;;5055007;28;20190;-85
2023/03/15 03:44:15;;;;;;;2.53;0.50;;;2.20;99.90;;;;;;5054000;28;20246;-85
2023/03/15 03:46:41;;;;;;;0.37;0.37;;;2.20;99.90;;;;;;5054891;28;20247;-86
2023/03/15 03:49:07;;;;;;;0.27;0.27;;;2.30;99.90;;;;;;5055079;28;20230;-85
2023/03/15 03:51:33;;;;;;;0.20;0.20;;;2.30;99.90;;;;;;5044060;28;20283;-85
2023/03/15 03:54:00;;;;;;;0.40;0.40;;;2.30;99.90;;;;;;5054790;28;20229;-85
2023/03/15 03:56:27;;;;;;;0.87;0.87;;;2.40;99.90;;;;;;5053653;28;20543;-86
2023/03/15 03:58:52;;;;;;;0.30;0.30;;;2.50;99.90;;;;;;5053514;28;20642;-83
2023/03/15 04:01:18;;;;;;;0.30;0.30;;;2.50;99.90;;;;;;5051572;28;20226;-86
2023/03/15 04:03:44;;;;;;;0.30;0.30;;;2.50;99.90;;;;;;5047996;28;20229;-86
2023/03/15 04:06:09;;;;;;;0.40;0.40;;;2.50;99.90;;;;;;5050432;28;20213;-85
2023/03/15 04:08:35;;;;;;;0.30;0.30;;;2.50;99.90;;;;;;5054807;28;20304;-85
2023/03/15 04:11:04;;;;;;;0.93;0.93;;;2.40;99.90;;;;;;5054855;28;20252;-85
2023/03/15 04:13:30;;;;;;;0.30;0.30;;;2.60;99.90;;;;;;5046932;28;20275;-85
2023/03/15 04:15:56;;;;;;;0.40;0.40;;;2.70;99.90;;;;;;5052884;28;20309;-85
2023/03/15 04:18:22;;;;;;;0.30;0.30;;;2.80;99.90;;;;;;5037858;28;20243;-85
2023/03/15 04:20:48;;;;;;;0.40;0.40;;;2.80;99.90;;;;;;5039824;28;20666;-86
2023/03/15 04:23:15;;;;;;;0.27;0.27;;;2.80;99.90;;;;;;5040361;28;20197;-86
2023/03/15 04:25:41;;;;;;;0.50;0.50;;;2.80;99.90;;;;;;5055017;28;21046;-85
2023/03/15 04:28:11;;;;;;;0.30;0.30;;;2.90;99.90;;;;;;5055021;28;20237;-85
2023/03/15 04:30:38;;;;;;;0.57;0.57;;;2.90;99.90;;;;;;5056969;28;20213;-85
2023/03/15 04:33:04;;;;;;;0.97;0.50;;;2.90;99.90;;;;;;5040694;28;20220;-86
2023/03/15 04:35:33;;;;;;;0.50;0.50;;;2.90;99.90;;;;;;5057077;28;20245;-85
2023/03/15 04:37:59;;;;;;;1.07;1.07;;;2.90;99.90;;;;;;5062669;28;20229;-84
2023/03/15 04:40:28;;;;;;;0.30;0.30;;;2.80;99.90;;;;;;5056364;28;20477;-85
2023/03/15 04:42:55;;;;;;;0.30;0.30;;;2.80;99.90;;;;;;5055950;28;20226;-85
2023/03/15 04:45:25;;;;;;;0.30;0.30;;;2.70;99.90;;;;;;5056404;28;20228;-86
2023/03/15 04:47:52;;;;;;;0.30;0.30;;;2.70;99.90;;;;;;5056855;28;20274;-85
2023/03/15 04:50:19;;;;;;;0.30;0.30;;;2.70;99.90;;;;;;5054879;28;20189;-85
2023/03/15 04:52:45;;;;;;;0.30;0.30;;;2.80;99.90;;;;;;5056924;28;20240;-86
2023/03/15 04:55:11;;;;;;;0.20;0.20;;;2.90;99.90;;;;;;5046319;28;20217;-85
2023/03/15 04:57:38;;;;;;;0.30;0.30;;;2.90;99.90;;;;;;5057865;28;20694;-84
2023/03/15 05:00:08;;;;;;;1.30;1.30;;;2.90;99.90;;;;;;5057454;28;20217;-85
2023/03/15 05:02:38;;;;;;;0.67;0.67;;;2.90;99.90;;;;;;5058078;28;20197;-84
2023/03/15 05:05:11;;;;;;;0.30;0.30;;;2.90;99.90;;;;;;5031950;28;20723;-85
2023/03/15 05:07:37;;;;;;;0.30;0.30;;;2.90;99.90;;;;;;5055544;28;20218;-85
2023/03/15 05:10:04;;;;;;;0.30;0.30;;;2.90;99.90;;;;;;5057517;28;20232;-84
2023/03/15 05:12:31;;;;;;;0.30;0.30;;;2.80;99.90;;;;;;5054124;28;20311;-85
2023/03/15 05:14:56;;;;;;;0.40;0.40;;;2.80;99.90;;;;;;5056706;28;20197;-84
2023/03/15 05:17:22;;;;;;;0.30;0.30;;;2.80;99.90;;;;;;5055096;28;20190;-85
2023/03/15 05:19:48;;;;;;;18.23;1.20;;;2.90;99.90;;;;;;5047032;28;20213;-84
2023/03/15 05:22:14;;;;;;;10.93;1.37;;;2.90;99.90;;;;;;5058230;28;20232;-84
2023/03/15 05:24:40;;;;;;;1.33;1.33;;;2.90;99.90;;;;;;5041757;28;20225;-85
2023/03/15 05:27:06;;;;;;;0.30;0.30;;;2.90;99.90;;;;;;5047660;28;20213;-85
2023/03/15 05:29:32;;;;;;;0.30;0.30;;;3.00;99.90;;;;;;5047063;28;20253;-84
2023/03/15 05:31:57;;;;;;;0.30;0.30;;;3.00;99.90;;;;;;5023347;28;20213;-84
2023/03/15 05:34:23;;;;;;;0.37;0.37;;;3.00;99.90;;;;;;5057606;28;20332;-85
2023/03/15 05:36:50;;;;;;;0.30;0.30;;;2.90;99.90;;;;;;5056237;28;20229;-86
2023/03/15 05:39:17;;;;;;;0.97;0.93;;;2.80;99.90;;;;;;5053873;28;20230;-85
2023/03/15 05:41:43;;;;;;;0.40;0.40;;;2.80;99.90;;;;;;5053997;28;20670;-84
2023/03/15 05:44:09;;;;;;;0.30;0.30;;;2.80;99.90;;;;;;5055444;28;20228;-86
2023/03/15 05:46:35;;;;;;;0.30;0.30;;;2.80;99.90;;;;;;5054695;28;20229;-85
2023/03/15 05:49:00;;;;;;;1.33;0.67;;;2.80;99.90;;;;;;5052464;28;20247;-84
2023/03/15 05:51:26;;;;;;;1.30;1.30;;;2.70;99.90;;;;;;5045886;28;20295;-85
2023/03/15 05:53:52;;;;;;;5.83;1.27;;;2.70;99.90;;;;;;5055709;28;20236;-87
2023/03/15 05:56:18;;;;;;;0.73;0.73;;;2.60;99.90;;;;;;5057433;28;20190;-86
2023/03/15 05:58:43;;;;;;;1.80;0.60;;;2.60;99.90;;;;;;5055049;28;20628;-87
2023/03/15 06:01:09;;;;;;;0.50;0.50;;;2.70;99.90;;;;;;5056772;28;20278;-84
2023/03/15 06:03:35;;;;;;;0.40;0.40;;;2.70;99.90;;;;;;5047710;28;20224;-83
2023/03/15 06:06:02;;;;;;;0.40;0.40;;;2.70;99.90;;;;;;5057206;28;20235;-84
2023/03/15 06:08:28;;;;;;;0.50;0.50;;;2.80;99.90;;;;;;5051155;28;20216;-88
2023/03/15 06:10:54;;;;;;;0.30;0.30;;;2.90;99.90;;;;;;5056151;28;20281;-85
2023/03/15 06:13:20;;;;;;;0.40;0.40;;;3.10;99.90;;;;;;5039756;28;20213;-84
2023/03/15 06:15:46;;;;;;;1.00;1.00;;;3.20;99.90;;;;;;5051725;28;20217;-86
2023/03/15 06:18:12;;;;;;;0.37;0.37;;;3.30;99.90;;;;;;5054575;28;20219;-85
2023/03/15 06:20:39;;;;;;;1.20;0.60;;;3.40;99.90;;;;;;5055552;28;20190;-87
2023/03/15 06:23:06;;;;;;;0.30;0.30;;;3.60;99.90;;;;;;5046673;28;20794;-86
2023/03/15 06:25:31;;;;;;;0.43;0.43;;;3.70;99.90;;;;;;5053932;28;20225;-86
2023/03/15 06:27:57;;;;;;;0.40;0.40;;;3.90;99.90;;;;;;5054658;28;20237;-86
2023/03/15 06:30:24;;;;;;;1.60;1.20;;;4.10;99.90;;;;;;5056048;28;20567;-85
2023/03/15 06:32:50;;;;;;;0.40;0.40;;;4.30;99.90;;;;;;5057296;28;20201;-86
2023/03/15 06:35:16;;;;;;;2.87;0.70;;;4.70;99.90;;;;;;5038606;28;20237;-85
2023/03/15 06:37:42;;;;;;;2.27;0.60;;;5.30;99.90;;;;;;5055064;28;20279;-85
2023/03/15 06:40:10;;;;;;;1.27;1.17;;;6.10;99.90;;;;;;5071436;28;20263;-86
2023/03/15 06:42:36;;;;;;;0.27;0.27;;;6.90;99.90;;;;;;5060505;28;20593;-88
2023/03/15 06:45:02;;;;;;;0.40;0.40;;;7.60;99.90;;;;;;5055476;28;20278;-84
2023/03/15 06:47:28;;;;;;;0.70;0.70;;;8.00;99.90;;;;;;5054202;28;20201;-87
2023/03/15 06:49:54;;;;;;;1.27;1.23;;;8.80;99.90;;;;;;5041873;28;20626;-88
2023/03/15 06:52:20;;;;;;;2.00;1.33;;;9.40;99.90;;;;;;5021240;28;20700;-85
2023/03/15 06:54:46;;;;;;;0.30;0.30;;;9.00;99.90;;;;;;5054077;28;20273;-85
2023/03/15 06:57:12;;;;;;;3.50;0.73;;;9.10;99.90;;;;;;5053400;28;20242;-86
2023/03/15 06:59:38;;;;;;;0.30;0.30;;;9.00;99.90;;;;;;5056023;28;20263;-85
2023/03/15 07:02:03;;;;;;;0.20;0.20;;;9.30;99.90;;;;;;5053814;28;20256;-86
2023/03/15 07:04:30;;;;;;;0.20;0.20;;;9.20;99.90;;;;;;5054464;28;20227;-86
2023/03/15 07:06:55;;;;;;;0.23;0.23;;;9.10;99.90;;;;;;5039552;28;20286;-87
2023/03/15 07:09:21;;;;;;;1.00;0.43;;;9.90;99.90;;;;;;5055284;28;20209;-87
2023/03/15 07:11:47;;;;;;;0.50;0.50;;;11.10;99.90;;;;;;5036888;28;20182;-87
2023/03/15 07:14:13;;;;;;;0.37;0.27;;;11.30;99.90;;;;;;5055237;28;20321;-90
2023/03/15 07:16:39;;;;;;;0.20;0.20;;;12.00;99.90;;;;;;5037203;28;20224;-89
2023/03/15 07:19:04;;;;;;;0.47;0.30;;;11.70;99.90;;;;;;5055409;28;20592;-89
2023/03/15 07:21:30;;;;;;;0.77;0.77;;;12.50;99.90;;;;;;5022341;28;20283;-87
2023/03/15 07:23:56;;;;;;;0.20;0.20;;;13.10;99.90;;;;;;5036648;28;20289;-88
2023/03/15 07:26:22;;;;;;;0.20;0.20;;;13.30;99.90;;;;;;5036113;28;20661;-87
2023/03/15 07:28:47;;;;;;;0.10;0.10;;;13.80;99.90;;;;;;5051967;28;20222;-87
2023/03/15 07:31:13;;;;;;;0.20;0.20;;;13.30;99.90;;;;;;5035790;28;20228;-88
2023/03/15 07:33:39;;;;;;;0.37;0.17;;;12.30;99.90;;;;;;5052512;28;20259;-88
2023/03/15 07:36:06;;;;;;;0.20;0.20;;;11.70;99.90;;;;;;5053744;28;20237;-86
2023/03/15 07:38:33;;;;;;;4.67;0.40;;;11.90;99.90;;;;;;5040325;28;20666;-87
2023/03/15 07:41:04;;;;;;;0.40;0.40;;;12.30;99.90;;;;;;5052816;28;20229;-90
2023/03/15 07:43:31;;;;;;;0.70;0.70;;;12.80;99.90;;;;;;5056614;28;20690;-89
2023/03/15 07:45:56;;;;;;;4.90;0.50;;;13.90;99.90;;;;;;5054778;28;20232;-90
2023/03/15 07:48:22;;;;;;;0.20;0.20;;;13.80;99.90;;;;;;5058626;28;21161;-88
2023/03/15 07:50:48;;;;;;;0.93;0.70;;;13.70;99.90;;;;;;5056318;28;20545;-91
2023/03/15 07:53:14;;;;;;;1.03;1.03;;;14.10;99.90;;;;;;5059839;28;20570;-87
2023/03/15 07:55:40;;;;;;;4.77;0.70;;;14.20;99.90;;;;;;5039871;28;21030;-90
2023/03/15 07:58:05;;;;;;;0.33;0.33;;;15.40;99.90;;;;;;5055836;28;20213;-87
2023/03/15 08:00:31;;;;;;;0.10;0.10;;;15.30;99.90;;;;;;5048138;28;20218;-84
2023/03/15 08:02:58;;;;;;;0.67;0.67;;;14.50;99.90;;;;;;5058689;28;20201;-86
2023/03/15 08:05:23;;;;;;;0.40;0.27;;;15.10;99.90;;;;;;5053909;28;20220;-84
2023/03/15 08:07:49;;;;;;;2.67;0.70;;;16.30;99.90;;;;;;5054220;28;20746;-85
2023/03/15 08:10:19;;;;;;;0.30;0.30;;;17.40;99.90;;;;;;5040223;28;20217;-87
2023/03/15 08:12:45;;;;;;;0.67;0.37;;;15.20;99.90;;;;;;5038954;28;20251;-87
2023/03/15 08:15:14;;;;;;;0.87;0.30;;;14.90;99.90;;;;;;5054464;28;20657;-85
2023/03/15 08:17:41;;;;;;;1.17;0.50;;;15.40;99.90;;;;;;5057814;28;20723;-87
2023/03/15 08:20:13;;;;;;;0.57;0.57;;;15.00;99.90;;;;;;5058780;28;20251;-89
2023/03/15 08:22:43;;;;;;;2.73;0.53;;;16.20;99.90;;;;;;5056943;28;20606;-87
2023/03/15 08:25:10;;;;;;;2.30;1.00;;;15.40;99.90;;;;;;5038953;28;20213;-87
2023/03/15 08:27:37;;;;;;;1.87;1.03;;;15.00;99.90;;;;;;5057124;28;20232;-88
2023/03/15 08:30:04;;;;;;;2.07;0.77;;;16.00;99.90;;;;;;5057833;28;20213;-89
2023/03/15 08:32:31;;;;;;;2.30;1.10;;;15.50;99.90;;;;;;5057762;28;20194;-84
2023/03/15 08:34:57;;;;;;;3.70;0.87;;;15.10;99.90;;;;;;5057751;28;20251;-86
2023/03/15 08:37:23;;;;;;;3.73;0.50;;;15.90;99.90;;;;;;5023836;28;20229;-85
2023/03/15 08:39:56;;;;;;;0.70;0.70;;;15.40;99.90;;;;;;5056980;28;20213;-87
2023/03/15 08:42:22;;;;;;;0.40;0.40;;;15.40;99.90;;;;;;5040540;28;20279;-87
2023/03/15 08:44:48;;;;;;;3.67;0.60;;;16.40;99.90;;;;;;5056248;28;20691;-87
2023/03/15 08:47:14;;;;;;;0.40;0.40;;;17.40;99.90;;;;;;5057930;28;20243;-85
2023/03/15 08:49:39;;;;;;;0.63;0.40;;;18.10;99.90;;;;;;5055803;28;20267;-88
2023/03/15 08:52:06;;;;;;;2.10;0.93;;;17.00;99.90;;;;;;5043376;28;20673;-85
2023/03/15 08:54:31;;;;;;;0.57;0.57;;;18.10;99.90;;;;;;5054303;28;20449;-87
2023/03/15 08:56:57;;;;;;;1.90;0.50;;;18.50;99.90;;;;;;5048729;28;20192;-86
2023/03/15 08:59:23;;;;;;;5.40;0.87;;;18.00;99.90;;;;;;5042103;28;20189;-85
2023/03/15 09:01:48;;;;;;;2.67;1.17;;;17.30;99.90;;;;;;5045915;28;20221;-86
2023/03/15 09:04:14;;;;;;;1.90;0.53;;;16.40;99.90;;;;;;5059616;28;20225;-87
2023/03/15 09:06:41;;;;;;;7.47;0.83;;;16.10;99.90;;;;;;5065236;28;20217;-86
2023/03/15 09:09:07;;;;;;;0.67;0.63;;;15.60;99.90;;;;;;5047969;28;20746;-86
2023/03/15 09:11:32;;;;;;;0.73;0.73;;;15.00;99.90;;;;;;5055886;28;20189;-86
2023/03/15 09:13:58;;;;;;;1.10;0.50;;;12.50;99.90;;;;;;5055662;28;20261;-86
2023/03/15 09:16:24;;;;;;;3.40;0.30;;;12.30;99.90;;;;;;5056322;28;20558;-86
2023/03/15 09:18:49;;;;;;;2.30;0.50;;;12.20;99.90;;;;;;5057651;28;20225;-85
2023/03/15 09:21:15;;;;;;;1.00;0.73;;;11.00;99.90;;;;;;5058679;28;20224;-86
2023/03/15 09:23:41;;;;;;;6.37;0.83;;;10.90;99.90;;;;;;5054740;28;20259;-85
2023/03/15 09:26:07;;;;;;;2.63;0.77;;;11.00;99.90;;;;;;5056412;28;20285;-86
2023/03/15 09:28:33;;;;;;;7.93;0.50;;;10.70;99.90;;;;;;5057758;28;20224;-84
2023/03/15 09:31:05;;;;;;;0.20;0.20;;;10.20;99.90;;;;;;5054283;28;20337;-85
2023/03/15 09:33:33;;;;;;;0.30;0.30;;;9.70;99.90;;;;;;5039712;28;20226;-86
2023/03/15 09:35:59;;;;;;;1.00;0.97;;;9.40;99.90;;;;;;5056502;28;20336;-84
2023/03/15 09:38:25;;;;;;;3.10;0.20;;;9.30;99.90;;;;;;5056944;28;20289;-85
2023/03/15 09:40:59;;;;;;;0.40;0.40;;;9.50;99.90;;;;;;5056632;28;20300;-84
2023/03/15 09:43:47;;;;;;;1.50;0.37;;;9.90;99.90;;;;;;5052342;28;20312;-87
2023/03/15 09:46:26;;;;;;;3.30;1.03;;;9.10;99.90;;;;;;5057476;28;20228;-85
2023/03/15 09:49:14;;;;;;;0.70;0.30;;;8.60;99.90;;;;;;5056619;28;20209;-86
2023/03/15 09:51:53;;;;;;;1.43;0.67;;;8.10;99.90;;;;;;5054439;28;20225;-85
2023/03/15 09:54:45;;;;;;;0.17;0.17;;;8.20;99.90;;;;;;5057065;28;20789;-84
2023/03/15 09:57:17;;;;;;;1.30;0.43;;;8.70;99.90;;;;;;5054183;28;20224;-87
2023/03/15 09:59:48;;;;;;;0.73;0.73;;;8.70;99.90;;;;;;5054919;28;20561;-84
2023/03/15 10:02:23;;;;;;;3.00;0.60;;;8.20;99.90;;;;;;5055322;28;20193;-85
2023/03/15 10:04:52;;;;;;;7.73;1.17;;;8.70;99.90;;;;;;5058182;28;20224;-87
2023/03/15 10:07:18;;;;;;;0.33;0.33;;;9.30;99.90;;;;;;5056681;28;20222;-85
2023/03/15 10:09:44;;;;;;;0.23;0.23;;;8.60;99.90;;;;;;5053249;28;20276;-83
2023/03/15 10:12:27;;;;;;;1.10;0.77;;;8.10;99.90;;;;;;5054521;28;20213;-83
2023/03/15 10:15:30;;;;;;;4.10;0.50;;;9.10;99.90;;;;;;5055320;28;20223;-85
2023/03/15 10:18:33;;;;;;;0.50;0.50;;;10.00;99.90;;;;;;5045931;28;20199;-85
2023/03/15 10:21:10;;;;;;;0.70;0.50;;;10.60;99.90;;;;;;5053340;28;23067;-88
2023/03/15 10:23:53;;;;;;;3.13;1.33;;;10.80;99.90;;;;;;5053682;28;20213;-84
2023/03/15 10:26:24;;;;;;;0.93;0.93;;;10.80;99.90;;;;;;5053924;28;20262;-84
2023/03/15 10:28:52;;;;;;;0.40;0.33;;;10.80;99.90;;;;;;5052066;28;20222;-86
2023/03/15 10:31:24;;;;;;;0.53;0.43;;;12.30;99.90;;;;;;5054359;28;20222;-84
2023/03/15 10:33:50;;;;;;;0.30;0.30;;;13.00;99.90;;;;;;5055477;28;20233;-87
2023/03/15 10:36:22;;;;;;;14.63;0.93;;;13.10;99.90;;;;;;5046244;28;20233;-85
2023/03/15 10:38:49;;;;;;;1.50;1.27;;;12.50;99.90;;;;;;5051934;28;20212;-85
2023/03/15 10:41:49;;;;;;;0.57;0.50;;;12.60;99.90;;;;;;5054273;28;20365;-86
2023/03/15 10:44:23;;;;;;;1.07;0.63;;;11.80;99.90;;;;;;5007159;28;20221;-86
2023/03/15 10:47:11;;;;;;;1.20;0.80;;;12.10;99.90;;;;;;5061343;28;20209;-85
2023/03/15 10:49:39;;;;;;;0.60;0.50;;;12.50;99.90;;;;;;5053532;28;20573;-86
2023/03/15 10:52:06;;;;;;;4.07;0.30;;;12.00;99.90;;;;;;5055488;28;20703;-88
2023/03/15 10:54:33;;;;;;;7.10;0.80;;;12.40;99.90;;;;;;5062180;28;20316;-86
2023/03/15 10:57:04;;;;;;;0.47;0.37;;;13.20;99.90;;;;;;5053071;28;20264;-86
2023/03/15 10:59:34;;;;;;;0.70;0.60;;;13.20;99.90;;;;;;5037325;28;20360;-86
2023/03/15 11:02:19;;;;;;;2.10;0.60;;;12.60;99.90;;;;;;5052430;28;20222;-85
2023/03/15 11:05:12;;;;;;;0.70;0.40;;;12.30;99.90;;;;;;5055251;28;20225;-84
2023/03/15 11:07:59;;;;;;;0.70;0.40;;;12.30;99.90;;;;;;5059823;28;20274;-84
2023/03/15 11:10:28;;;;;;;5.73;0.60;;;12.80;99.90;;;;;;5051427;28;20706;-84
2023/03/15 11:13:19;;;;;;;1.33;0.60;;;12.20;99.90;;;;;;5057178;28;20236;-86
2023/03/15 11:15:53;;;;;;;0.70;0.70;;;12.10;99.90;;;;;;5055828;28;20275;-84
2023/03/15 11:18:27;;;;;;;0.53;0.53;;;13.00;99.90;;;;;;5056970;28;20212;-85
2023/03/15 11:20:55;;;;;;;1.37;0.83;;;12.50;99.90;;;;;;5059981;28;20181;-86
2023/03/15 11:23:28;;;;;;;0.73;0.40;;;12.10;99.90;;;;;;5056374;28;20533;-86
2023/03/15 11:25:54;;;;;;;0.33;0.20;;;11.80;99.90;;;;;;5056825;28;20517;-86
2023/03/15 11:28:27;;;;;;;2.77;0.57;;;12.10;99.90;;;;;;5063499;28;20313;-85
2023/03/15 11:30:56;;;;;;;0.40;0.40;;;12.10;99.90;;;;;;5057338;28;20856;-84
2023/03/15 11:33:50;;;;;;;1.00;0.60;;;12.80;99.90;;;;;;5067659;28;20233;-85
2023/03/15 11:36:20;;;;;;;0.20;0.20;;;13.20;99.90;;;;;;5055641;28;20229;-86
2023/03/15 11:38:47;;;;;;;2.33;0.60;;;12.70;99.90;;;;;;5080588;28;20178;-85
2023/03/15 11:41:27;;;;;;;0.87;0.53;;;12.70;99.90;;;;;;5058566;28;20189;-86
2023/03/15 11:44:24;;;;;;;0.97;0.73;;;11.80;99.90;;;;;;5055468;28;20591;-86
2023/03/15 11:47:00;;;;;;;5.23;1.47;;;12.00;99.90;;;;;;5055226;28;20225;-84
2023/03/15 11:49:53;;;;;;;1.87;0.60;;;11.60;99.90;;;;;;5056671;28;20563;-85
2023/03/15 11:52:22;;;;;;;0.30;0.30;;;11.10;99.90;;;;;;5061668;28;20258;-85
2023/03/15 11:54:49;;;;;;;0.50;0.30;;;11.20;99.90;;;;;;5058825;28;20317;-85
2023/03/15 11:57:46;;;;;;;1.53;0.90;;;11.10;99.90;;;;;;5055700;28;20263;-85
2023/03/15 12:00:25;;;;;;;1.60;0.67;;;11.20;99.90;;;;;;5056457;28;20612;-88
2023/03/15 12:03:00;;;;;;;0.87;0.40;;;11.10;99.90;;;;;;5056300;28;20200;-84
2023/03/15 12:05:49;;;;;;;3.10;0.40;;;10.60;99.90;;;;;;5056425;28;20276;-83
2023/03/15 12:08:24;;;;;;;1.20;0.60;;;11.00;99.90;;;;;;5059807;28;20291;-85
2023/03/15 12:10:50;;;;;;;0.60;0.30;;;11.30;99.90;;;;;;5055610;28;20242;-83
2023/03/15 12:13:22;;;;;;;3.47;0.43;;;10.80;99.90;;;;;;5041081;28;20232;-83
2023/03/15 12:15:49;;;;;;;0.30;0.30;;;11.00;99.90;;;;;;5058256;28;20687;-85
2023/03/15 12:18:21;;;;;;;1.80;0.50;;;10.90;99.90;;;;;;5055745;28;20227;-85
2023/03/15 12:21:07;;;;;;;0.30;0.30;;;10.40;99.90;;;;;;5061040;28;20178;-83
2023/03/15 12:24:16;;;;;;;1.33;0.73;;;10.20;99.90;;;;;;5055311;28;20677;-84
2023/03/15 12:26:41;;;;;;;3.57;0.30;;;10.20;99.90;;;;;;5018353;28;20241;-84
2023/03/15 12:29:21;;;;;;;0.30;0.23;;;10.40;99.90;;;;;;5054512;28;20193;-84
2023/03/15 12:32:01;;;;;;;0.50;0.50;;;10.10;99.90;;;;;;5058366;28;20256;-84
2023/03/15 12:34:54;;;;;;;2.00;0.83;;;10.10;99.90;;;;;;5056936;28;20805;-84
2023/03/15 12:37:32;;;;;;;2.00;0.40;;;9.80;99.90;;;;;;5057127;28;20260;-85
2023/03/15 12:39:59;;;;;;;1.40;0.33;;;9.90;99.90;;;;;;5057063;28;20297;-86
2023/03/15 12:42:28;;;;;;;0.20;0.20;;;9.90;99.90;;;;;;5059624;28;20213;-85
2023/03/15 12:45:14;;;;;;;0.40;0.40;;;9.70;99.90;;;;;;5057086;28;20553;-86
2023/03/15 12:47:52;;;;;;;0.77;0.30;;;9.50;99.90;;;;;;5049661;28;20617;-85
2023/03/15 12:50:44;;;;;;;0.53;0.53;;;9.20;99.90;;;;;;5056867;28;20580;-84
2023/03/15 12:53:36;;;;;;;1.00;0.70;;;9.10;99.90;;;;;;5060795;28;20229;-85
2023/03/15 12:56:20;;;;;;;0.20;0.20;;;9.00;99.90;;;;;;5055911;28;20209;-84
2023/03/15 12:58:50;;;;;;;0.30;0.30;;;9.20;99.90;;;;;;5054571;28;20209;-86
2023/03/15 13:01:17;;;;;;;1.80;0.50;;;9.20;99.90;;;;;;5054404;28;20646;-83
2023/03/15 13:03:43;;;;;;;2.57;0.70;;;9.00;99.90;;;;;;5055171;28;20232;-85
2023/03/15 13:06:30;;;;;;;0.70;0.70;;;9.00;99.90;;;;;;5047601;28;20209;-85